Terminal Aerodrome Forecast
Issued by NWS Grand Forks, ND

Home | Current Version | Previous Version | Text Only | Print | Product List | Glossary Off
Versions: 1 2 3 4 5 6 7 8 9 10 11 12 13 14 15 16

633
FTUS43 KFGF 261721
TAFFAR
TAF
KFAR 261721Z 2618/2718 VRB06KT P6SM BKN100
     FM262100 VRB06KT P6SM VCTS BKN100CB
     FM270300 01006KT P6SM BKN140=

USA.gov is the U.S. government's official web portal to all federal, state and local government web resources and services.